createdAt,value
2022-12-26T00:01:07.627Z,66.75
2022-12-26T00:04:50.679Z,66.61
2022-12-26T00:07:30.739Z,66.70
2022-12-26T00:10:32.203Z,66.79
2022-12-26T00:13:39.789Z,66.69
2022-12-26T00:16:44.618Z,67.05
2022-12-26T00:19:46.279Z,66.88
2022-12-26T00:22:47.786Z,66.64
2022-12-26T00:25:49.318Z,66.84
2022-12-26T00:28:53.999Z,66.80
2022-12-26T00:31:55.574Z,66.54
2022-12-26T00:34:57.087Z,66.84
2022-12-26T00:37:58.539Z,67.14
2022-12-26T00:41:00.129Z,66.80
2022-12-26T00:44:01.716Z,66.85
2022-12-26T00:47:03.258Z,66.89
2022-12-26T00:50:14.211Z,66.90
2022-12-26T00:53:16.741Z,67.12
2022-12-26T00:56:18.391Z,66.93
2022-12-26T00:59:19.902Z,66.84
2022-12-26T01:02:39.644Z,66.80
2022-12-26T01:05:49.116Z,66.61
2022-12-26T01:08:50.672Z,66.61
2022-12-26T01:11:52.181Z,66.46
2022-12-26T01:14:57.183Z,66.39
2022-12-26T01:18:00.088Z,66.48
2022-12-26T01:21:05.036Z,66.50
2022-12-26T01:24:06.719Z,66.52
2022-12-26T01:27:09.506Z,66.54
2022-12-26T01:30:12.542Z,66.62
2022-12-26T01:33:14.087Z,66.74
2022-12-26T01:36:16.877Z,66.65
2022-12-26T01:39:18.389Z,66.57
2022-12-26T01:42:23.433Z,66.62
2022-12-26T01:45:24.870Z,66.63
2022-12-26T01:48:34.344Z,66.81
2022-12-26T01:51:40.210Z,66.57
2022-12-26T01:54:46.309Z,66.78
2022-12-26T01:57:55.503Z,66.71
2022-12-26T02:00:57.264Z,66.84
2022-12-26T02:04:20.780Z,66.70
2022-12-26T02:07:23.410Z,66.58
2022-12-26T02:10:28.233Z,66.64
2022-12-26T02:13:30.711Z,66.80
2022-12-26T02:16:35.257Z,66.62
2022-12-26T02:20:01.928Z,66.72
2022-12-26T02:23:37.347Z,66.67
2022-12-26T02:27:03.856Z,66.45
2022-12-26T02:30:24.166Z,66.66
2022-12-26T02:33:37.523Z,66.80
2022-12-26T02:36:50.927Z,66.68
2022-12-26T02:39:52.393Z,66.80
2022-12-26T02:43:06.534Z,66.97
2022-12-26T02:46:44.968Z,66.71
2022-12-26T02:50:10.924Z,66.83
2022-12-26T02:53:33.661Z,66.80
2022-12-26T02:57:00.685Z,66.99
2022-12-26T03:00:22.865Z,66.97
2022-12-26T03:03:48.675Z,66.92
2022-12-26T03:07:14.962Z,67.01
2022-12-26T03:10:41.801Z,66.95
2022-12-26T03:13:45.696Z,67.03
2022-12-26T03:17:11.472Z,66.93
2022-12-26T03:20:25.853Z,66.86
2022-12-26T03:23:28.629Z,66.87
2022-12-26T03:26:40.633Z,67.03
2022-12-26T03:30:14.363Z,67.03
2022-12-26T03:33:36.788Z,66.98
2022-12-26T03:36:59.775Z,67.05
2022-12-26T03:40:38.814Z,66.92
2022-12-26T03:44:05.972Z,66.89
2022-12-26T03:48:04.588Z,67.02
2022-12-26T03:51:41.952Z,66.90
2022-12-26T03:55:15.185Z,67.02
2022-12-26T03:58:40.517Z,66.93
2022-12-26T04:02:04.000Z,66.94
2022-12-26T04:05:27.460Z,66.80
2022-12-26T04:08:56.676Z,66.80
2022-12-26T04:12:19.800Z,66.88
2022-12-26T04:16:04.249Z,67.18
2022-12-26T04:19:36.296Z,67.09
2022-12-26T04:23:09.670Z,67.05
2022-12-26T04:26:38.646Z,67.19
2022-12-26T04:29:59.014Z,67.27
2022-12-26T04:33:32.591Z,67.07
2022-12-26T04:37:00.986Z,67.12
2022-12-26T04:40:23.855Z,66.92
2022-12-26T04:43:51.308Z,67.04
2022-12-26T04:46:55.821Z,67.05
2022-12-26T04:50:12.582Z,66.78
2022-12-26T04:53:14.943Z,67.11
2022-12-26T04:56:17.152Z,67.07
2022-12-26T04:59:19.389Z,67.10
2022-12-26T05:02:39.452Z,67.15
2022-12-26T05:06:03.039Z,67.11
2022-12-26T05:09:22.910Z,67.20
2022-12-26T05:12:24.385Z,67.02
2022-12-26T05:15:25.911Z,67.11
2022-12-26T05:18:45.950Z,67.10
2022-12-26T05:22:06.190Z,67.07
2022-12-26T05:25:38.991Z,67.14
2022-12-26T05:28:43.578Z,66.89
2022-12-26T05:31:45.145Z,67.19
2022-12-26T05:34:47.678Z,67.44
2022-12-26T05:37:49.187Z,67.11
2022-12-26T05:40:50.654Z,67.06
2022-12-26T05:43:52.143Z,67.18
2022-12-26T05:46:53.688Z,67.24
2022-12-26T05:49:55.151Z,67.29
2022-12-26T05:52:58.186Z,67.28
2022-12-26T05:56:21.879Z,67.58
2022-12-26T05:59:23.361Z,67.53
2022-12-26T06:02:24.888Z,67.52
2022-12-26T06:05:26.658Z,67.52
2022-12-26T06:08:28.431Z,67.59
2022-12-26T06:11:29.988Z,67.51
2022-12-26T06:14:31.471Z,67.64
2022-12-26T06:17:33.013Z,67.77
2022-12-26T06:20:34.536Z,67.69
2022-12-26T06:23:36.741Z,67.84
2022-12-26T06:26:38.194Z,67.96
2022-12-26T06:29:39.711Z,67.57
2022-12-26T06:32:41.170Z,67.87
2022-12-26T06:35:42.768Z,67.83
2022-12-26T06:38:44.543Z,67.82
2022-12-26T06:41:46.065Z,67.80
2022-12-26T06:44:47.523Z,67.94
2022-12-26T06:47:49.042Z,67.69
2022-12-26T06:50:56.570Z,67.70
2022-12-26T06:54:00.522Z,67.75
2022-12-26T06:57:01.998Z,67.51
2022-12-26T07:00:04.036Z,67.62
2022-12-26T07:03:05.584Z,67.39
2022-12-26T07:06:20.471Z,67.51
2022-12-26T07:09:21.959Z,67.42
2022-12-26T07:12:23.514Z,67.42
2022-12-26T07:15:25.118Z,67.64
2022-12-26T07:18:26.674Z,67.43
2022-12-26T07:21:36.349Z,67.52
2022-12-26T07:24:41.431Z,67.38
2022-12-26T07:27:42.886Z,67.14
2022-12-26T07:30:50.761Z,67.50
2022-12-26T07:33:54.328Z,67.43
2022-12-26T07:36:55.943Z,67.44
2022-12-26T07:39:59.360Z,66.89
2022-12-26T07:43:01.110Z,67.32
2022-12-26T07:46:02.689Z,67.21
2022-12-26T07:49:04.288Z,67.41
2022-12-26T07:52:05.879Z,67.42
2022-12-26T07:55:08.968Z,67.49
2022-12-26T07:58:10.497Z,67.31
2022-12-26T08:01:12.088Z,67.56
2022-12-26T08:04:14.795Z,67.28
2022-12-26T08:07:16.295Z,67.54
2022-12-26T08:10:17.924Z,67.27
2022-12-26T08:13:19.470Z,67.03
2022-12-26T08:16:21.643Z,67.36
2022-12-26T08:19:23.146Z,67.32
2022-12-26T08:22:24.668Z,67.42
2022-12-26T08:25:26.170Z,67.34
2022-12-26T08:28:27.650Z,67.31
2022-12-26T08:31:29.251Z,67.39
2022-12-26T08:34:35.165Z,67.13
2022-12-26T08:37:36.684Z,67.19
2022-12-26T08:40:45.260Z,67.34
2022-12-26T08:47:16.660Z,67.15
2022-12-26T08:50:18.191Z,66.96
2022-12-26T08:53:19.705Z,67.16
2022-12-26T08:56:24.672Z,67.36
2022-12-26T08:59:26.147Z,67.44
2022-12-26T09:02:27.743Z,67.43
2022-12-26T09:05:31.243Z,67.49
2022-12-26T09:08:36.681Z,67.38
2022-12-26T09:11:42.332Z,67.38
2022-12-26T09:14:43.835Z,67.46
2022-12-26T09:17:45.435Z,67.18
2022-12-26T09:20:46.985Z,67.38
2022-12-26T09:23:48.530Z,67.11
2022-12-26T09:26:50.032Z,67.32
2022-12-26T09:29:51.542Z,67.35
2022-12-26T09:32:53.928Z,67.42
2022-12-26T09:36:03.078Z,67.29
2022-12-26T09:39:06.606Z,67.43
2022-12-26T09:42:34.138Z,67.15
2022-12-26T09:45:52.475Z,67.01
2022-12-26T09:48:58.944Z,67.04
2022-12-26T09:52:05.216Z,66.75
2022-12-26T09:55:29.501Z,66.69
2022-12-26T09:58:32.476Z,66.53
2022-12-26T10:01:36.623Z,66.58
2022-12-26T10:04:38.282Z,66.21
2022-12-26T10:07:39.739Z,66.50
2022-12-26T10:10:56.288Z,66.52
2022-12-26T10:14:39.810Z,62.48
2022-12-26T10:18:26.189Z,63.23
2022-12-26T10:21:46.369Z,63.74
2022-12-26T10:24:49.919Z,64.15
2022-12-26T10:27:51.744Z,64.37
2022-12-26T10:30:56.908Z,64.59
2022-12-26T10:34:23.186Z,64.80
2022-12-26T10:37:32.979Z,64.95
2022-12-26T10:40:39.217Z,65.27
2022-12-26T10:43:45.526Z,65.49
2022-12-26T10:47:11.541Z,65.54
2022-12-26T10:50:31.331Z,65.49
2022-12-26T10:53:35.769Z,65.56
2022-12-26T10:56:37.588Z,65.62
2022-12-26T10:59:44.236Z,65.87
2022-12-26T11:02:46.114Z,66.15
2022-12-26T11:06:09.511Z,65.98
2022-12-26T11:09:39.364Z,66.14
2022-12-26T11:12:50.063Z,66.19
2022-12-26T11:15:53.267Z,66.25
2022-12-26T11:18:56.062Z,66.32
2022-12-26T11:22:18.800Z,66.25
2022-12-26T11:25:34.980Z,66.43
2022-12-26T11:28:37.758Z,66.44
2022-12-26T11:31:42.614Z,66.44
2022-12-26T11:34:47.845Z,66.49
2022-12-26T11:37:57.851Z,66.43
2022-12-26T11:41:18.021Z,66.49
2022-12-26T11:44:45.352Z,66.33
2022-12-26T11:47:47.114Z,66.45
2022-12-26T11:50:48.695Z,66.39
2022-12-26T11:53:50.130Z,66.29
2022-12-26T11:57:02.247Z,66.37
2022-12-26T12:00:20.126Z,66.17
2022-12-26T12:03:42.400Z,66.09
2022-12-26T12:07:09.335Z,66.00
2022-12-26T12:10:38.450Z,65.99
2022-12-26T12:13:51.997Z,65.70
2022-12-26T12:17:26.416Z,65.97
2022-12-26T12:20:32.294Z,65.92
2022-12-26T12:24:01.545Z,65.97
2022-12-26T12:27:24.737Z,65.93
2022-12-26T12:30:40.710Z,65.98
2022-12-26T12:33:46.097Z,65.82
2022-12-26T12:37:23.582Z,65.73
2022-12-26T12:40:56.670Z,65.97
2022-12-26T12:44:06.133Z,65.82
2022-12-26T12:47:23.073Z,65.84
2022-12-26T12:50:44.709Z,65.82
2022-12-26T12:54:16.204Z,65.67
2022-12-26T12:57:27.293Z,65.66
2022-12-26T13:00:39.347Z,65.58
2022-12-26T13:03:57.870Z,65.42
2022-12-26T13:07:07.535Z,65.32
2022-12-26T13:10:19.657Z,65.29
2022-12-26T13:13:30.063Z,65.26
2022-12-26T13:16:43.284Z,65.17
2022-12-26T13:19:52.635Z,65.21
2022-12-26T13:23:25.067Z,65.35
2022-12-26T13:26:34.383Z,64.94
2022-12-26T13:29:39.389Z,65.02
2022-12-26T13:32:44.888Z,65.26
2022-12-26T13:36:03.732Z,64.91
2022-12-26T13:39:08.075Z,64.95
2022-12-26T13:42:28.254Z,64.96
2022-12-26T13:45:35.705Z,64.88
2022-12-26T13:48:37.215Z,64.84
2022-12-26T13:51:50.525Z,64.74
2022-12-26T13:54:51.958Z,64.69
2022-12-26T13:58:19.744Z,64.63
2022-12-26T14:01:21.264Z,64.60
2022-12-26T14:05:06.232Z,64.55
2022-12-26T14:08:14.706Z,64.76
2022-12-26T14:11:42.616Z,64.72
2022-12-26T14:14:59.285Z,65.11
2022-12-26T14:18:03.638Z,65.16
2022-12-26T14:21:42.809Z,65.36
2022-12-26T14:25:04.705Z,65.22
2022-12-26T14:28:21.572Z,65.27
2022-12-26T14:31:29.159Z,65.27
2022-12-26T14:34:46.064Z,65.35
2022-12-26T14:38:06.126Z,65.28
2022-12-26T14:41:33.258Z,65.24
2022-12-26T14:44:34.658Z,65.16
2022-12-26T14:47:49.444Z,65.17
2022-12-26T14:51:04.463Z,64.96
2022-12-26T14:54:16.777Z,64.74
2022-12-26T14:57:43.166Z,64.80
2022-12-26T15:00:45.079Z,64.69
2022-12-26T15:03:52.800Z,64.63
2022-12-26T15:07:20.386Z,64.78
2022-12-26T15:10:34.836Z,64.85
2022-12-26T15:13:51.259Z,64.47
2022-12-26T15:17:07.028Z,64.48
2022-12-26T15:20:20.604Z,64.59
2022-12-26T15:23:24.960Z,64.45
2022-12-26T15:26:43.969Z,64.52
2022-12-26T15:30:00.682Z,64.67
2022-12-26T15:33:28.659Z,64.69
2022-12-26T15:36:48.450Z,64.65
2022-12-26T15:40:14.974Z,64.91
2022-12-26T15:43:25.663Z,64.67
2022-12-26T15:46:32.212Z,64.68
2022-12-26T15:49:39.632Z,64.69
2022-12-26T15:53:09.863Z,64.89
2022-12-26T15:56:40.695Z,65.06
2022-12-26T16:00:12.701Z,64.97
2022-12-26T16:03:20.630Z,65.18
2022-12-26T16:06:44.246Z,64.99
2022-12-26T16:09:52.782Z,65.04
2022-12-26T16:13:03.202Z,65.18
2022-12-26T16:16:04.987Z,65.28
2022-12-26T16:19:22.905Z,65.41
2022-12-26T16:22:43.586Z,65.64
2022-12-26T16:25:49.832Z,65.64
2022-12-26T16:28:52.304Z,65.65
2022-12-26T16:32:02.528Z,65.68
2022-12-26T16:35:06.746Z,65.63
2022-12-26T16:38:16.807Z,65.49
2022-12-26T16:41:25.473Z,65.23
2022-12-26T16:44:31.111Z,65.35
2022-12-26T16:47:33.170Z,65.16
2022-12-26T16:50:44.041Z,65.18
2022-12-26T16:53:45.641Z,65.20
2022-12-26T16:56:52.312Z,65.36
2022-12-26T16:59:59.267Z,65.29
2022-12-26T17:03:03.045Z,65.11
2022-12-26T17:06:07.570Z,65.35
2022-12-26T17:09:12.184Z,65.20
2022-12-26T17:12:27.776Z,65.55
2022-12-26T17:15:36.174Z,65.70
2022-12-26T17:18:52.615Z,65.72
2022-12-26T17:22:17.762Z,65.54
2022-12-26T17:25:26.414Z,65.74
2022-12-26T17:28:28.763Z,65.68
2022-12-26T17:31:44.540Z,65.86
2022-12-26T17:34:46.259Z,65.61
2022-12-26T17:37:51.241Z,65.84
2022-12-26T17:40:55.653Z,65.79
2022-12-26T17:43:57.769Z,65.74
2022-12-26T17:47:02.821Z,65.71
2022-12-26T17:50:04.602Z,65.59
2022-12-26T17:53:22.756Z,65.63
2022-12-26T17:56:27.084Z,65.82
2022-12-26T17:59:28.652Z,65.72
2022-12-26T18:02:30.206Z,66.00
2022-12-26T18:05:32.597Z,65.71
2022-12-26T18:08:37.217Z,65.62
2022-12-26T18:11:38.727Z,65.50
2022-12-26T18:14:41.338Z,65.74
2022-12-26T18:17:43.359Z,65.53
2022-12-26T18:20:44.847Z,65.55
2022-12-26T18:23:46.365Z,65.99
2022-12-26T18:26:49.668Z,65.91
2022-12-26T18:29:51.400Z,66.27
2022-12-26T18:32:54.017Z,66.15
2022-12-26T18:35:55.769Z,66.23
2022-12-26T18:38:57.318Z,66.67
2022-12-26T18:41:58.824Z,66.24
2022-12-26T18:45:00.402Z,66.16
2022-12-26T18:48:02.067Z,66.23
2022-12-26T18:51:06.121Z,66.45
2022-12-26T18:54:07.703Z,66.41
2022-12-26T18:57:20.093Z,66.49
2022-12-26T19:00:22.032Z,66.79
2022-12-26T19:03:23.500Z,66.98
2022-12-26T19:06:28.923Z,66.93
2022-12-26T19:09:30.447Z,66.96
2022-12-26T19:12:31.926Z,67.37
2022-12-26T19:15:35.940Z,67.53
2022-12-26T19:18:37.529Z,67.76
2022-12-26T19:21:41.774Z,67.85
2022-12-26T19:24:44.435Z,68.04
2022-12-26T19:27:47.639Z,68.16
2022-12-26T19:30:49.148Z,68.27
2022-12-26T19:33:50.621Z,68.51
2022-12-26T19:36:52.135Z,68.53
2022-12-26T19:39:53.620Z,68.58
2022-12-26T19:42:55.092Z,68.96
2022-12-26T19:46:05.059Z,68.70
2022-12-26T19:49:06.582Z,68.76
2022-12-26T19:52:09.979Z,68.63
2022-12-26T19:55:12.317Z,68.50
2022-12-26T19:58:13.821Z,68.52
2022-12-26T20:01:18.759Z,68.41
2022-12-26T20:04:20.610Z,68.17
2022-12-26T20:07:22.124Z,68.01
2022-12-26T20:10:23.614Z,68.20
2022-12-26T20:13:25.139Z,68.37
2022-12-26T20:17:03.781Z,68.40
2022-12-26T20:19:50.163Z,68.41
2022-12-26T20:22:53.404Z,68.19
2022-12-26T20:25:57.702Z,68.38
2022-12-26T20:29:03.594Z,68.13
2022-12-26T20:32:05.150Z,68.38
2022-12-26T20:35:06.959Z,68.21
2022-12-26T20:38:08.434Z,68.44
2022-12-26T20:41:11.279Z,68.42
2022-12-26T20:44:14.519Z,68.40
2022-12-26T20:47:17.342Z,68.42
2022-12-26T20:50:19.251Z,68.99
2022-12-26T20:53:20.771Z,68.48
2022-12-26T20:56:22.276Z,68.29
2022-12-26T20:59:23.880Z,68.60
2022-12-26T21:02:25.543Z,68.93
2022-12-26T21:05:27.226Z,68.50
2022-12-26T21:08:28.709Z,68.61
2022-12-26T21:11:33.231Z,68.61
2022-12-26T21:14:34.781Z,68.63
2022-12-26T21:17:36.846Z,68.60
2022-12-26T21:20:38.320Z,68.75
2022-12-26T21:23:40.154Z,68.50
2022-12-26T21:26:42.697Z,68.24
2022-12-26T21:29:44.324Z,68.37
2022-12-26T21:32:46.226Z,68.03
2022-12-26T21:35:50.828Z,68.09
2022-12-26T21:38:53.396Z,67.84
2022-12-26T21:41:54.942Z,67.71
2022-12-26T21:44:56.448Z,67.63
2022-12-26T21:47:57.952Z,67.60
2022-12-26T21:50:59.419Z,67.32
2022-12-26T21:54:19.503Z,67.37
2022-12-26T21:57:22.257Z,67.62
2022-12-26T22:00:24.115Z,67.48
2022-12-26T22:03:44.355Z,67.46
2022-12-26T22:06:45.964Z,67.26
2022-12-26T22:09:47.444Z,67.31
2022-12-26T22:12:57.967Z,67.30
2022-12-26T22:16:06.880Z,67.07
2022-12-26T22:19:09.075Z,66.83
2022-12-26T22:22:10.630Z,66.80
2022-12-26T22:25:12.605Z,66.61
2022-12-26T22:28:16.569Z,66.45
2022-12-26T22:31:31.613Z,66.59
2022-12-26T22:34:33.241Z,66.60
2022-12-26T22:37:34.737Z,66.48
2022-12-26T22:40:36.475Z,66.26
2022-12-26T22:43:37.913Z,66.39
2022-12-26T22:46:39.456Z,66.28
2022-12-26T22:49:40.972Z,66.37
2022-12-26T22:52:42.844Z,66.25
2022-12-26T22:55:50.596Z,66.39
2022-12-26T22:58:53.894Z,66.38
2022-12-26T23:01:55.547Z,66.49
2022-12-26T23:04:57.464Z,66.34
2022-12-26T23:07:59.119Z,66.34
2022-12-26T23:11:00.884Z,66.40
2022-12-26T23:14:05.398Z,66.31
2022-12-26T23:17:10.549Z,66.14
2022-12-26T23:20:33.311Z,66.30
2022-12-26T23:23:35.053Z,66.56
2022-12-26T23:26:36.530Z,66.41
2022-12-26T23:29:56.699Z,66.72
2022-12-26T23:32:58.417Z,66.68
2022-12-26T23:36:00.015Z,66.61
2022-12-26T23:39:01.648Z,66.80
2022-12-26T23:42:03.139Z,66.77
2022-12-26T23:45:05.468Z,66.74
2022-12-26T23:48:06.915Z,66.73
2022-12-26T23:51:08.666Z,66.77
2022-12-26T23:54:10.287Z,66.83
2022-12-26T23:57:11.823Z,66.75
